Time,TemperatureF,DewpointF,PressureIn,WindDirection,WindDirectionDegrees,WindSpeedMPH,WindSpeedGustMPH,Humidity,HourlyPrecipIn,Conditions,Clouds,dailyrainin,SoftwareType,DateUTC
2013-07-16 00:13:00,67.4,66.0,30.12,ENE,63,0.0,0.0,94,0.00,,,0.00,weatherlink.com 1.10,2013-07-16 04:13:00,
2013-07-16 00:28:00,67.3,66.0,30.12,ENE,63,0.0,0.0,95,0.00,,,0.00,weatherlink.com 1.10,2013-07-16 04:28:00,
2013-07-16 00:43:00,67.2,66.0,30.12,ENE,62,0.0,2.0,95,0.00,,,0.00,weatherlink.com 1.10,2013-07-16 04:43:00,
2013-07-16 00:58:00,67.1,66.0,30.12,ENE,62,0.0,0.0,95,0.00,,,0.00,weatherlink.com 1.10,2013-07-16 04:58:00,
2013-07-16 01:13:00,67.0,66.0,30.12,ENE,62,0.0,0.0,95,0.00,,,0.00,weatherlink.com 1.10,2013-07-16 05:13:00,
2013-07-16 01:30:00,66.7,65.0,30.12,ENE,62,0.0,0.0,95,0.00,,,0.00,weatherlink.com 1.10,2013-07-16 05:30:00,
2013-07-16 01:43:00,66.6,66.0,30.12,ENE,62,0.0,1.0,96,0.00,,,0.00,weatherlink.com 1.10,2013-07-16 05:43:00,
2013-07-16 01:58:00,66.3,65.0,30.11,ENE,62,0.0,1.0,96,0.00,,,0.00,weatherlink.com 1.10,2013-07-16 05:58:00,
2013-07-16 02:13:00,66.2,65.0,30.11,ENE,59,0.0,1.0,96,0.00,,,0.00,weatherlink.com 1.10,2013-07-16 06:13:00,
2013-07-16 02:28:00,66.1,65.0,30.11,NW,304,0.0,2.0,96,0.00,,,0.00,weatherlink.com 1.10,2013-07-16 06:28:00,
2013-07-16 02:43:00,65.9,65.0,30.11,NW,304,0.0,1.0,96,0.00,,,0.00,weatherlink.com 1.10,2013-07-16 06:43:00,
2013-07-16 02:58:00,65.8,65.0,30.11,NW,304,0.0,1.0,96,0.00,,,0.00,weatherlink.com 1.10,2013-07-16 06:58:00,
2013-07-16 03:13:00,65.6,65.0,30.12,NW,304,0.0,0.0,96,0.00,,,0.00,weatherlink.com 1.10,2013-07-16 07:13:00,
2013-07-16 03:28:00,65.4,64.0,30.11,NW,304,0.0,0.0,96,0.00,,,0.00,weatherlink.com 1.10,2013-07-16 07:28:00,
2013-07-16 03:43:00,65.4,64.0,30.11,WNW,298,0.0,1.0,96,0.00,,,0.00,weatherlink.com 1.10,2013-07-16 07:43:00,
2013-07-16 03:58:00,65.7,65.0,30.11,West,276,0.0,1.0,96,0.00,,,0.00,weatherlink.com 1.10,2013-07-16 07:58:00,
2013-07-16 04:13:00,66.1,65.0,30.11,West,267,0.0,1.0,95,0.00,,,0.00,weatherlink.com 1.10,2013-07-16 08:13:00,
2013-07-16 04:28:00,66.3,65.0,30.11,West,267,0.0,1.0,95,0.00,,,0.00,weatherlink.com 1.10,2013-07-16 08:28:00,
2013-07-16 04:43:00,66.3,65.0,30.11,West,267,0.0,0.0,95,0.00,,,0.00,weatherlink.com 1.10,2013-07-16 08:43:00,
2013-07-16 04:58:00,66.3,65.0,30.11,West,267,0.0,1.0,95,0.00,,,0.00,weatherlink.com 1.10,2013-07-16 08:58:00,
2013-07-16 05:13:00,66.1,65.0,30.12,West,267,0.0,1.0,95,0.00,,,0.00,weatherlink.com 1.10,2013-07-16 09:13:00,
2013-07-16 05:28:00,66.0,65.0,30.12,West,267,0.0,0.0,95,0.00,,,0.00,weatherlink.com 1.10,2013-07-16 09:28:00,
2013-07-16 05:43:00,65.8,64.0,30.12,West,267,0.0,0.0,95,0.00,,,0.00,weatherlink.com 1.10,2013-07-16 09:43:00,
2013-07-16 05:59:00,66.0,65.0,30.13,West,267,0.0,1.0,95,0.00,,,0.00,weatherlink.com 1.10,2013-07-16 09:59:00,
2013-07-16 06:14:00,66.3,65.0,30.13,West,267,0.0,0.0,95,0.00,,,0.00,weatherlink.com 1.10,2013-07-16 10:14:00,
2013-07-16 06:29:00,66.9,66.0,30.13,West,267,0.0,1.0,95,0.00,,,0.00,weatherlink.com 1.10,2013-07-16 10:29:00,
2013-07-16 06:44:00,67.7,66.0,30.13,West,273,0.0,1.0,93,0.00,,,0.00,weatherlink.com 1.10,2013-07-16 10:44:00,
2013-07-16 06:59:00,68.9,67.0,30.13,WSW,244,0.0,3.0,92,0.00,,,0.00,weatherlink.com 1.10,2013-07-16 10:59:00,
2013-07-16 07:14:00,70.6,67.0,30.13,SW,233,3.0,3.0,89,0.00,,,0.00,weatherlink.com 1.10,2013-07-16 11:14:00,
2013-07-16 07:29:00,72.0,68.0,30.14,WSW,241,0.0,4.0,86,0.00,,,0.00,weatherlink.com 1.10,2013-07-16 11:29:00,
2013-07-16 07:44:00,73.0,68.0,30.14,WSW,241,0.0,6.0,84,0.00,,,0.00,weatherlink.com 1.10,2013-07-16 11:44:00,
2013-07-16 07:59:00,74.2,68.0,30.14,WSW,253,0.0,2.0,81,0.00,,,0.00,weatherlink.com 1.10,2013-07-16 11:59:00,
2013-07-16 08:14:00,75.2,69.0,30.14,West,263,0.0,2.0,80,0.00,,,0.00,weatherlink.com 1.10,2013-07-16 12:14:00,
2013-07-16 08:29:00,76.7,70.0,30.14,West,275,0.0,1.0,79,0.00,,,0.00,weatherlink.com 1.10,2013-07-16 12:29:00,
2013-07-16 08:46:00,78.1,70.0,30.14,West,279,0.0,1.0,75,0.00,,,0.00,weatherlink.com 1.10,2013-07-16 12:46:00,
2013-07-16 08:59:00,79.3,70.0,30.14,NW,309,0.0,2.0,73,0.00,,,0.00,weatherlink.com 1.10,2013-07-16 12:59:00,
2013-07-16 09:14:00,80.0,70.0,30.14,NW,309,0.0,1.0,72,0.00,,,0.00,weatherlink.com 1.10,2013-07-16 13:14:00,
2013-07-16 09:29:00,81.0,70.0,30.14,NW,307,0.0,1.0,70,0.00,,,0.00,weatherlink.com 1.10,2013-07-16 13:29:00,
2013-07-16 09:44:00,82.5,71.0,30.14,NW,307,0.0,1.0,68,0.00,,,0.00,weatherlink.com 1.10,2013-07-16 13:44:00,
2013-07-16 09:59:00,83.8,71.0,30.14,NW,306,0.0,1.0,66,0.00,,,0.00,weatherlink.com 1.10,2013-07-16 13:59:00,
2013-07-16 10:14:00,85.4,70.0,30.14,NW,313,1.0,8.0,60,0.00,,,0.00,weatherlink.com 1.10,2013-07-16 14:14:00,
2013-07-16 10:29:00,86.6,70.0,30.13,West,279,0.0,6.0,58,0.00,,,0.00,weatherlink.com 1.10,2013-07-16 14:29:00,
2013-07-16 10:44:00,87.2,70.0,30.13,West,268,1.0,5.0,57,0.00,,,0.00,weatherlink.com 1.10,2013-07-16 14:44:00,
2013-07-16 10:59:00,87.2,69.0,30.13,West,279,1.0,8.0,55,0.00,,,0.00,weatherlink.com 1.10,2013-07-16 14:59:00,
2013-07-16 11:15:00,87.3,69.0,30.13,NW,312,1.0,6.0,54,0.00,,,0.00,weatherlink.com 1.10,2013-07-16 15:15:00,
2013-07-16 11:30:00,87.0,68.0,30.13,West,279,4.0,10.0,53,0.00,,,0.00,weatherlink.com 1.10,2013-07-16 15:30:00,
2013-07-16 11:45:00,86.7,68.0,30.13,West,271,2.0,9.0,54,0.00,,,0.00,weatherlink.com 1.10,2013-07-16 15:45:00,
2013-07-16 12:00:00,87.5,68.0,30.13,West,276,3.0,8.0,52,0.00,,,0.00,weatherlink.com 1.10,2013-07-16 16:00:00,
2013-07-16 12:15:00,87.0,69.0,30.13,NW,308,2.0,4.0,56,0.00,,,0.00,weatherlink.com 1.10,2013-07-16 16:15:00,
2013-07-16 12:30:00,88.2,68.0,30.12,West,275,3.0,9.0,52,0.00,,,0.00,weatherlink.com 1.10,2013-07-16 16:30:00,
2013-07-16 12:45:00,88.7,68.0,30.12,WNW,303,6.0,12.0,50,0.00,,,0.00,weatherlink.com 1.10,2013-07-16 16:45:00,
2013-07-16 13:00:00,88.3,68.0,30.12,West,274,2.0,9.0,52,0.00,,,0.00,weatherlink.com 1.10,2013-07-16 17:00:00,
2013-07-16 13:15:00,88.2,69.0,30.12,WSW,243,3.0,7.0,53,0.00,,,0.00,weatherlink.com 1.10,2013-07-16 17:15:00,
2013-07-16 13:30:00,89.4,68.0,30.11,NW,320,0.0,9.0,50,0.00,,,0.00,weatherlink.com 1.10,2013-07-16 17:30:00,
2013-07-16 13:45:00,88.7,69.0,30.11,WNW,292,1.0,11.0,52,0.00,,,0.00,weatherlink.com 1.10,2013-07-16 17:45:00,
2013-07-16 14:00:00,88.6,69.0,30.10,NNE,24,0.0,10.0,52,0.00,,,0.00,weatherlink.com 1.10,2013-07-16 18:00:00,
2013-07-16 14:15:00,88.8,68.0,30.11,WNW,290,0.0,13.0,50,0.00,,,0.00,weatherlink.com 1.10,2013-07-16 18:15:00,
2013-07-16 14:30:00,89.6,69.0,30.11,West,276,3.0,7.0,50,0.00,,,0.00,weatherlink.com 1.10,2013-07-16 18:30:00,
2013-07-16 14:45:00,89.7,69.0,30.11,West,269,2.0,6.0,50,0.00,,,0.00,weatherlink.com 1.10,2013-07-16 18:45:00,
2013-07-16 15:00:00,89.1,68.0,30.11,WNW,296,0.0,8.0,50,0.00,,,0.00,weatherlink.com 1.10,2013-07-16 19:00:00,
2013-07-16 15:15:00,90.0,69.0,30.10,NW,310,3.0,10.0,50,0.00,,,0.00,weatherlink.com 1.10,2013-07-16 19:15:00,
2013-07-16 15:30:00,89.5,68.0,30.09,WNW,296,4.0,10.0,50,0.00,,,0.00,weatherlink.com 1.10,2013-07-16 19:30:00,
2013-07-16 15:45:00,90.0,69.0,30.09,NW,324,0.0,6.0,51,0.00,,,0.00,weatherlink.com 1.10,2013-07-16 19:45:00,
2013-07-16 16:03:00,90.2,70.0,30.09,WNW,291,4.0,7.0,51,0.00,,,0.00,weatherlink.com 1.10,2013-07-16 20:03:00,
2013-07-16 16:15:00,89.4,69.0,30.09,West,270,4.0,9.0,51,0.00,,,0.00,weatherlink.com 1.10,2013-07-16 20:15:00,
2013-07-16 16:30:00,89.8,69.0,30.08,NNE,20,0.0,6.0,51,0.00,,,0.00,weatherlink.com 1.10,2013-07-16 20:30:00,
2013-07-16 16:45:00,89.5,70.0,30.08,WNW,296,3.0,9.0,52,0.00,,,0.00,weatherlink.com 1.10,2013-07-16 20:45:00,
2013-07-16 17:00:00,89.9,68.0,30.08,West,261,4.0,9.0,49,0.00,,,0.00,weatherlink.com 1.10,2013-07-16 21:00:00,
2013-07-16 17:15:00,89.6,68.0,30.06,East,101,0.0,7.0,49,0.00,,,0.00,weatherlink.com 1.10,2013-07-16 21:15:00,
2013-07-16 17:30:00,90.2,69.0,30.08,NNE,14,0.0,3.0,49,0.00,,,0.00,weatherlink.com 1.10,2013-07-16 21:30:00,
2013-07-16 17:45:00,90.4,69.0,30.08,NNW,345,0.0,5.0,50,0.00,,,0.00,weatherlink.com 1.10,2013-07-16 21:45:00,
2013-07-16 18:00:00,90.0,68.0,30.09,West,269,0.0,5.0,49,0.00,,,0.00,weatherlink.com 1.10,2013-07-16 22:00:00,
2013-07-16 18:15:00,89.4,68.0,30.07,WNW,284,2.0,7.0,50,0.00,,,0.00,weatherlink.com 1.10,2013-07-16 22:15:00,
2013-07-16 18:30:00,89.0,68.0,30.07,WNW,292,0.0,5.0,50,0.00,,,0.00,weatherlink.com 1.10,2013-07-16 22:30:00,
2013-07-16 18:45:00,88.5,68.0,30.05,WNW,286,3.0,6.0,51,0.00,,,0.00,weatherlink.com 1.10,2013-07-16 22:45:00,
2013-07-16 19:00:00,87.7,68.0,30.08,WNW,288,0.0,4.0,52,0.00,,,0.00,weatherlink.com 1.10,2013-07-16 23:00:00,
2013-07-16 19:15:00,87.4,69.0,30.08,WNW,288,0.0,1.0,54,0.00,,,0.00,weatherlink.com 1.10,2013-07-16 23:15:00,
2013-07-16 19:30:00,86.3,69.0,30.09,WNW,288,0.0,1.0,56,0.00,,,0.00,weatherlink.com 1.10,2013-07-16 23:30:00,
2013-07-16 19:45:00,84.4,69.0,30.09,WNW,288,0.0,1.0,60,0.00,,,0.00,weatherlink.com 1.10,2013-07-16 23:45:00,
2013-07-16 20:00:00,82.1,69.0,30.09,WNW,288,0.0,0.0,65,0.00,,,0.00,weatherlink.com 1.10,2013-07-17 00:00:00,
2013-07-16 20:15:00,81.2,70.0,30.10,WNW,288,0.0,0.0,68,0.00,,,0.00,weatherlink.com 1.10,2013-07-17 00:15:00,
2013-07-16 20:30:00,79.8,70.0,30.10,WNW,288,0.0,0.0,72,0.00,,,0.00,weatherlink.com 1.10,2013-07-17 00:30:00,
2013-07-16 20:45:00,77.8,70.0,30.11,WNW,288,0.0,0.0,78,0.00,,,0.00,weatherlink.com 1.10,2013-07-17 00:45:00,
2013-07-16 21:00:00,76.5,70.0,30.11,WNW,288,0.0,0.0,81,0.00,,,0.00,weatherlink.com 1.10,2013-07-17 01:00:00,
2013-07-16 21:15:00,75.4,70.0,30.12,WNW,288,0.0,0.0,82,0.00,,,0.00,weatherlink.com 1.10,2013-07-17 01:15:00,
2013-07-16 21:30:00,74.5,69.0,30.12,WNW,288,0.0,0.0,84,0.00,,,0.00,weatherlink.com 1.10,2013-07-17 01:30:00,
2013-07-16 21:45:00,73.9,69.0,30.13,WNW,288,0.0,0.0,85,0.00,,,0.00,weatherlink.com 1.10,2013-07-17 01:45:00,
2013-07-16 22:00:00,73.0,69.0,30.13,WNW,288,0.0,0.0,86,0.00,,,0.00,weatherlink.com 1.10,2013-07-17 02:00:00,
2013-07-16 22:16:00,72.5,69.0,30.13,WNW,288,0.0,0.0,88,0.00,,,0.00,weatherlink.com 1.10,2013-07-17 02:16:00,
2013-07-16 22:30:00,72.1,69.0,30.13,WNW,288,0.0,0.0,89,0.00,,,0.00,weatherlink.com 1.10,2013-07-17 02:30:00,
2013-07-16 22:45:00,71.6,68.0,30.14,WNW,288,0.0,0.0,89,0.00,,,0.00,weatherlink.com 1.10,2013-07-17 02:45:00,
2013-07-16 23:00:00,71.0,68.0,30.14,WNW,288,0.0,0.0,90,0.00,,,0.00,weatherlink.com 1.10,2013-07-17 03:00:00,
2013-07-16 23:15:00,70.4,68.0,30.14,WNW,288,0.0,0.0,91,0.00,,,0.00,weatherlink.com 1.10,2013-07-17 03:15:00,
2013-07-16 23:30:00,70.0,68.0,30.14,WNW,288,0.0,0.0,92,0.00,,,0.00,weatherlink.com 1.10,2013-07-17 03:30:00,
2013-07-16 23:45:00,69.7,67.0,30.14,WNW,288,0.0,0.0,92,0.00,,,0.00,weatherlink.com 1.10,2013-07-17 03:45:00,